Time;durP1;ratioP1;P1;durP2;ratioP2;P2;SDS_P1;SDS_P2;PMS_P1;PMS_P2;Temp;Humidity;BMP_temperature;BMP_pressure;BME280_temperature;BME280_humidity;BME280_pressure;Samples;Min_cycle;Max_cycle;Signal;HPM_P1;HPM_P2
2019/04/04 00:01:57;;;;;;;2.7;2.2;;;;;;;12.15;48.59473;945.3954;;;;
2019/04/04 00:04:22;;;;;;;2.1;1.8;;;;;;;12.06;48.97266;945.3099;;;;
2019/04/04 00:06:47;;;;;;;2.9;2;;;;;;;12.05;48.86523;945.2946;;;;
2019/04/04 00:09:12;;;;;;;2.2;1.8;;;;;;;12.08;48.76367;945.3015;;;;
2019/04/04 00:11:37;;;;;;;2;1.8;;;;;;;12.01;48.86133;945.2651;;;;
2019/04/04 00:14:02;;;;;;;2.3;2.1;;;;;;;12.05;48.88867;945.1473;;;;
2019/04/04 00:16:27;;;;;;;2.6;1.8;;;;;;;12.08;48.72852;945.1094;;;;
2019/04/04 00:18:52;;;;;;;2.1;1.9;;;;;;;12.17;48.50195;945.1404;;;;
2019/04/04 00:21:18;;;;;;;3.4;2;;;;;;;12.15;48.35938;945.1085;;;;
2019/04/04 00:23:43;;;;;;;2.1;1.9;;;;;;;12.17;48.28027;944.9694;;;;
2019/04/04 00:26:09;;;;;;;1.9;1.8;;;;;;;12.2;48.1416;944.9239;;;;
2019/04/04 00:28:35;;;;;;;2.2;2;;;;;;;12.06;48.6543;944.967;;;;
2019/04/04 00:31:01;;;;;;;3.5;1.8;;;;;;;12.09;48.68164;945.0036;;;;
2019/04/04 00:33:26;;;;;;;2.1;1.9;;;;;;;12.15;48.62988;945.0617;;;;
2019/04/04 00:35:53;;;;;;;2.4;2.1;;;;;;;12.05;48.72461;944.8995;;;;
2019/04/04 00:38:18;;;;;;;2.2;2;;;;;;;12.15;48.54688;944.9144;;;;
2019/04/04 00:40:43;;;;;;;2.4;2.1;;;;;;;12.08;48.7041;944.8973;;;;
2019/04/04 00:43:08;;;;;;;2.5;2.3;;;;;;;12.09;48.70508;944.8041;;;;
2019/04/04 00:45:34;;;;;;;4.2;2.2;;;;;;;12.15;48.44238;944.8085;;;;
2019/04/04 00:47:59;;;;;;;2.5;2;;;;;;;12.14;48.37012;944.685;;;;
2019/04/04 00:50:24;;;;;;;2.7;2.4;;;;;;;12.13;48.48633;944.5653;;;;
2019/04/04 00:52:50;;;;;;;2.5;2.3;;;;;;;12.03;48.74609;944.4741;;;;
2019/04/04 00:55:15;;;;;;;3.2;2.5;;;;;;;12.05;48.67676;944.5175;;;;
2019/04/04 00:57:40;;;;;;;2.9;2.6;;;;;;;11.94;48.78223;944.4968;;;;
2019/04/04 01:00:08;;;;;;;2.9;2.6;;;;;;;12.01;48.62598;944.5089;;;;
2019/04/04 01:02:33;;;;;;;3.2;2.8;;;;;;;11.92;48.95605;944.4625;;;;
2019/04/04 01:05:02;;;;;;;3.3;3;;;;;;;11.85;48.99609;944.3503;;;;
2019/04/04 01:07:28;;;;;;;3.5;2.7;;;;;;;11.83;49.22852;944.2544;;;;
2019/04/04 01:09:53;;;;;;;2.9;2.7;;;;;;;11.81;49.42578;944.198;;;;
2019/04/04 01:12:24;;;;;;;3.5;3.2;;;;;;;11.78;49.58691;944.1223;;;;
2019/04/04 01:14:43;;;;;;;3.6;3;;;;;;;11.58;50.00977;944.202;;;;
2019/04/04 01:17:08;;;;;;;3.4;3.1;;;;;;;11.49;50.30664;944.1242;;;;
2019/04/04 01:19:33;;;;;;;3.4;3.1;;;;;;;11.68;49.68164;944.0251;;;;
2019/04/04 01:21:58;;;;;;;4.9;3.2;;;;;;;11.74;49.47656;944.0298;;;;
2019/04/04 01:24:23;;;;;;;3.6;3.3;;;;;;;11.6;50.17773;944.0463;;;;
2019/04/04 01:26:48;;;;;;;3.6;3.3;;;;;;;11.74;49.61816;944.0298;;;;
2019/04/04 01:29:15;;;;;;;3.3;3;;;;;;;11.74;49.85352;944.0428;;;;
2019/04/04 01:31:40;;;;;;;4.6;3.4;;;;;;;11.67;49.87891;944.0192;;;;
2019/04/04 01:34:05;;;;;;;4.3;3.9;;;;;;;11.66;49.78516;943.9778;;;;
2019/04/04 01:36:30;;;;;;;4;3.6;;;;;;;11.69;50.01172;943.8801;;;;
2019/04/04 01:38:55;;;;;;;5.2;4.3;;;;;;;11.44;50.60547;943.832;;;;
2019/04/04 01:41:20;;;;;;;4.6;4.2;;;;;;;11.51;50.4834;943.8178;;;;
2019/04/04 01:43:46;;;;;;;5.1;4.6;;;;;;;11.57;50.28027;943.7919;;;;
2019/04/04 01:46:11;;;;;;;5.7;5.2;;;;;;;11.52;49.98047;943.6711;;;;
2019/04/04 01:48:37;;;;;;;5.6;5.1;;;;;;;11.53;50.0166;943.6735;;;;
2019/04/04 01:51:02;;;;;;;5.7;5.2;;;;;;;11.36;50.73633;943.6616;;;;
2019/04/04 01:53:27;;;;;;;5.8;5.3;;;;;;;11.3;50.85938;943.7429;;;;
2019/04/04 01:55:52;;;;;;;6.3;5.7;;;;;;;11.31;51.00098;943.7285;;;;
2019/04/04 01:58:18;;;;;;;6.7;6.1;;;;;;;11.26;51.1709;943.678;;;;
2019/04/04 02:00:43;;;;;;;6.9;6.3;;;;;;;11.39;50.79883;943.7126;;;;
2019/04/04 02:03:09;;;;;;;7.1;6.5;;;;;;;11.23;51.10938;943.7234;;;;
2019/04/04 02:05:34;;;;;;;7;6.3;;;;;;;11.38;50.75195;943.6789;;;;
2019/04/04 02:07:59;;;;;;;7.3;6.6;;;;;;;11.27;50.58496;943.6244;;;;
2019/04/04 02:10:24;;;;;;;7.3;6.6;;;;;;;10.81;52.61914;943.5192;;;;
2019/04/04 02:12:49;;;;;;;6.6;6;;;;;;;11.21;51.10645;943.4938;;;;
2019/04/04 02:15:14;;;;;;;8.2;7.4;;;;;;;10.87;52.22754;943.3767;;;;
2019/04/04 02:17:39;;;;;;;7.7;7;;;;;;;10.72;53.00684;943.3245;;;;
2019/04/04 02:20:04;;;;;;;8.2;6.9;;;;;;;10.76;52.88184;943.257;;;;
2019/04/04 02:22:29;;;;;;;7.3;6.6;;;;;;;10.93;52.10547;943.3044;;;;
2019/04/04 02:24:55;;;;;;;7.7;7;;;;;;;11.13;51.60254;943.2139;;;;
2019/04/04 02:27:20;;;;;;;7.9;7.2;;;;;;;10.53;53.55859;943.1644;;;;
2019/04/04 02:29:45;;;;;;;8;7.2;;;;;;;10.51;53.88281;942.9961;;;;
2019/04/04 02:32:12;;;;;;;7.6;6.9;;;;;;;10.71;53.12305;942.9372;;;;
2019/04/04 02:34:35;;;;;;;8.6;7.8;;;;;;;10.51;53.80273;942.9554;;;;
2019/04/04 02:37:00;;;;;;;8.8;7.8;;;;;;;10.3;54.55957;942.8875;;;;
2019/04/04 02:39:25;;;;;;;8.6;7.8;;;;;;;10.43;54.11816;942.7958;;;;
2019/04/04 02:41:53;;;;;;;8.8;7.9;;;;;;;10.82;52.7959;942.7147;;;;
2019/04/04 02:44:19;;;;;;;9.3;8.4;;;;;;;10.68;53.1543;942.7054;;;;
2019/04/04 02:46:55;;;;;;;9.2;8.3;;;;;;;10.88;52.74609;942.6837;;;;
2019/04/04 02:49:20;;;;;;;9.9;8.9;;;;;;;10.71;53.36914;942.7589;;;;
2019/04/04 02:51:53;;;;;;;9.9;9;;;;;;;10.62;53.66309;942.8464;;;;
2019/04/04 02:54:21;;;;;;;9.6;8.7;;;;;;;10.38;54.39551;942.7997;;;;
2019/04/04 02:56:46;;;;;;;10.3;9.3;;;;;;;10.44;54.27344;942.815;;;;
2019/04/04 02:59:11;;;;;;;10.2;9.2;;;;;;;10.83;52.9502;942.8549;;;;
2019/04/04 03:01:36;;;;;;;11;10;;;;;;;10.68;53.45898;942.8095;;;;
2019/04/04 03:04:01;;;;;;;11.4;10.2;;;;;;;10.59;53.64844;942.7784;;;;
2019/04/04 03:06:26;;;;;;;11.2;10.1;;;;;;;10.79;52.93457;942.7417;;;;
2019/04/04 03:08:51;;;;;;;11.2;10.1;;;;;;;10.62;53.4043;942.6306;;;;
2019/04/04 03:11:16;;;;;;;11.6;10.5;;;;;;;10.47;54.03125;942.6343;;;;
2019/04/04 03:13:41;;;;;;;11.6;10.4;;;;;;;10.69;53.14453;942.4902;;;;
2019/04/04 03:16:07;;;;;;;11.3;10.2;;;;;;;10.42;53.83691;942.3853;;;;
2019/04/04 03:18:32;;;;;;;11.4;10.3;;;;;;;10.64;53.19629;942.4011;;;;
2019/04/04 03:20:57;;;;;;;10.8;9.8;;;;;;;10.61;53.31055;942.4056;;;;
2019/04/04 03:23:31;;;;;;;11.2;10.1;;;;;;;10.57;53.30469;942.341;;;;
2019/04/04 03:26:09;;;;;;;11.8;10.7;;;;;;;10.62;53.28809;942.3169;;;;
2019/04/04 03:28:34;;;;;;;11.5;10.4;;;;;;;10.24;54.72852;942.287;;;;
2019/04/04 03:30:59;;;;;;;11.3;10.2;;;;;;;10.34;54.34277;942.306;;;;
2019/04/04 03:33:24;;;;;;;13.1;11.7;;;;;;;10.38;54.21973;942.25;;;;
2019/04/04 03:35:59;;;;;;;16.2;13;;;;;;;10.49;54.17578;942.1577;;;;
2019/04/04 03:38:28;;;;;;;13.1;11.4;;;;;;;9.7;56.33301;942.0698;;;;
2019/04/04 03:40:53;;;;;;;12.8;11.6;;;;;;;9.99;55.59766;942.1096;;;;
2019/04/04 03:43:18;;;;;;;12.6;11.4;;;;;;;9.57;56.91211;941.9996;;;;
2019/04/04 03:45:47;;;;;;;14.2;11.3;;;;;;;9.65;56.92188;941.9713;;;;
2019/04/04 03:48:14;;;;;;;12.7;11.5;;;;;;;9.73;56.72168;941.9856;;;;
2019/04/04 03:50:39;;;;;;;13.1;11.7;;;;;;;10.03;55.59082;941.9588;;;;
2019/04/04 03:53:05;;;;;;;12.8;11.4;;;;;;;9.99;55.80859;942.0186;;;;
2019/04/04 03:55:31;;;;;;;12.4;11.2;;;;;;;10.35;54.67188;941.9959;;;;
2019/04/04 03:57:56;;;;;;;12.5;11.2;;;;;;;10.57;53.8457;941.9153;;;;
2019/04/04 04:02:28;;;;;;;12.8;11.6;;;;;;;10.21;55.09961;941.6916;;;;
2019/04/04 04:04:52;;;;;;;13.1;11.9;;;;;;;9.83;56.57227;941.5444;;;;
2019/04/04 04:07:18;;;;;;;12.8;11.5;;;;;;;9.53;57.7959;941.597;;;;
2019/04/04 04:09:43;;;;;;;12.9;11.6;;;;;;;9.98;56.18164;941.6042;;;;
2019/04/04 04:12:08;;;;;;;15.2;12.1;;;;;;;9.78;57.11523;941.6501;;;;
2019/04/04 04:14:33;;;;;;;15.1;13.5;;;;;;;10.06;55.95801;941.7561;;;;
2019/04/04 04:16:58;;;;;;;14.6;12.5;;;;;;;10.32;55.11426;941.5342;;;;
2019/04/04 04:19:23;;;;;;;13.9;12.5;;;;;;;10.34;54.95215;941.4441;;;;
2019/04/04 04:21:50;;;;;;;13.6;12.3;;;;;;;10.12;55.74414;941.5447;;;;
2019/04/04 04:24:15;;;;;;;12.7;11.5;;;;;;;10.04;55.94336;941.5062;;;;
2019/04/04 04:26:40;;;;;;;14.8;13.3;;;;;;;9.47;58.12598;941.5392;;;;
2019/04/04 04:29:05;;;;;;;15.1;13.5;;;;;;;9.6;58.03809;941.4143;;;;
2019/04/04 04:31:31;;;;;;;14.2;12.7;;;;;;;9.68;57.62891;941.4584;;;;
2019/04/04 04:33:56;;;;;;;13.3;12;;;;;;;9.54;58.21777;941.4734;;;;
2019/04/04 04:36:21;;;;;;;13.9;12.6;;;;;;;9.05;60.20703;941.3566;;;;
2019/04/04 04:38:46;;;;;;;15.4;13.8;;;;;;;9.43;58.84668;941.3133;;;;
2019/04/04 04:41:17;;;;;;;16;14.4;;;;;;;9.71;57.94824;941.2391;;;;
2019/04/04 04:43:43;;;;;;;15;13.6;;;;;;;9.73;57.71777;941.2177;;;;
2019/04/04 04:46:08;;;;;;;14.9;13.5;;;;;;;9.71;57.88965;941.2145;;;;
2019/04/04 04:48:33;;;;;;;14.9;13.4;;;;;;;9.51;58.62305;941.2719;;;;
2019/04/04 04:50:58;;;;;;;16.3;14.6;;;;;;;8.97;61.04785;941.2344;;;;
2019/04/04 04:53:23;;;;;;;18.9;15.1;;;;;;;9.33;59.7666;941.1398;;;;
2019/04/04 04:55:49;;;;;;;16.8;15.1;;;;;;;9.48;59.14453;941.0795;;;;
2019/04/04 04:58:14;;;;;;;18.3;16.4;;;;;;;9.42;59.27734;940.9695;;;;
2019/04/04 05:00:39;;;;;;;18.9;17;;;;;;;9.3;59.76367;940.9813;;;;
2019/04/04 05:03:58;;;;;;;19.2;17.1;;;;;;;9.03;61.06738;940.8511;;;;
2019/04/04 05:06:27;;;;;;;21.4;19.1;;;;;;;9.02;61.10254;940.8086;;;;
2019/04/04 05:08:52;;;;;;;21.9;19.2;;;;;;;9.02;61.18262;940.8528;;;;
2019/04/04 05:11:18;;;;;;;22;19.8;;;;;;;9.1;60.90332;940.8024;;;;
2019/04/04 05:13:43;;;;;;;21.7;19.4;;;;;;;8.73;62.09961;940.6942;;;;
2019/04/04 05:16:09;;;;;;;22.2;19.8;;;;;;;9.01;61.32324;940.6895;;;;
2019/04/04 05:18:35;;;;;;;21.4;19.2;;;;;;;9.04;61.03613;940.6794;;;;
2019/04/04 05:21:00;;;;;;;21;18.7;;;;;;;9.42;59.46387;940.6503;;;;
2019/04/04 05:23:29;;;;;;;22.7;19.5;;;;;;;9.32;59.96484;940.5629;;;;
2019/04/04 05:25:55;;;;;;;24.7;19.8;;;;;;;9.18;60.03809;940.4165;;;;
2019/04/04 05:28:33;;;;;;;27.2;21.4;;;;;;;9.18;60.17871;940.4218;;;;
2019/04/04 05:31:00;;;;;;;26;20.9;;;;;;;9;61.0166;940.3162;;;;
2019/04/04 05:33:25;;;;;;;25.1;20.7;;;;;;;8.96;61.2334;940.3018;;;;
2019/04/04 05:35:51;;;;;;;27;21.2;;;;;;;8.62;62.70313;940.2413;;;;
2019/04/04 05:38:16;;;;;;;27.4;21.3;;;;;;;8.64;62.54102;940.2253;;;;
2019/04/04 05:40:45;;;;;;;28.3;22.3;;;;;;;8.54;63.14648;940.2397;;;;
2019/04/04 05:43:11;;;;;;;28.1;22;;;;;;;8.77;62.49023;940.1602;;;;
2019/04/04 05:45:36;;;;;;;27.7;22.5;;;;;;;8.93;61.74414;940.2469;;;;
2019/04/04 05:48:02;;;;;;;29;22.7;;;;;;;9.11;61.18359;940.1167;;;;
2019/04/04 05:50:27;;;;;;;28.9;22.9;;;;;;;8.83;62.15039;940.0039;;;;
2019/04/04 05:52:52;;;;;;;27.8;22.6;;;;;;;8.75;62.84961;939.9467;;;;
2019/04/04 05:55:20;;;;;;;32;25.8;;;;;;;8.96;61.87598;940.0164;;;;
2019/04/04 05:57:45;;;;;;;32.2;25;;;;;;;9.16;61.15625;939.9892;;;;
2019/04/04 06:00:12;;;;;;;30.5;24.1;;;;;;;8.81;62.75391;939.7969;;;;
2019/04/04 06:02:35;;;;;;;31.1;23.8;;;;;;;8.78;62.78418;939.8627;;;;
2019/04/04 06:05:00;;;;;;;32.4;23.1;;;;;;;8.99;62.25391;939.7394;;;;
2019/04/04 06:07:33;;;;;;;31.4;24.6;;;;;;;9.02;62.21191;939.8058;;;;
2019/04/04 06:09:58;;;;;;;29.2;22.6;;;;;;;8.83;62.82715;939.7574;;;;
2019/04/04 06:12:38;;;;;;;31.2;24.8;;;;;;;8.69;63.42383;939.8475;;;;
2019/04/04 06:15:06;;;;;;;30;23.1;;;;;;;8.6;63.80859;939.7738;;;;
2019/04/04 06:17:31;;;;;;;28.7;22.4;;;;;;;8.7;63.32129;939.7575;;;;
2019/04/04 06:19:58;;;;;;;26.6;22.2;;;;;;;8.59;64.19141;939.7676;;;;
2019/04/04 06:22:23;;;;;;;28.1;22;;;;;;;8.88;62.85742;939.6792;;;;
2019/04/04 06:24:48;;;;;;;28.7;23.5;;;;;;;8.96;62.72852;939.6584;;;;
2019/04/04 06:27:15;;;;;;;29.1;23.2;;;;;;;8.85;62.96973;939.7801;;;;
2019/04/04 06:29:40;;;;;;;30.4;22.9;;;;;;;8.81;63.2666;939.71;;;;
2019/04/04 06:32:14;;;;;;;31.4;23.6;;;;;;;8.81;63.47754;939.5375;;;;
2019/04/04 06:34:40;;;;;;;28.9;22.2;;;;;;;8.83;63.3291;939.5628;;;;
2019/04/04 06:37:06;;;;;;;29.5;22.8;;;;;;;8.91;63.11816;939.4917;;;;
2019/04/04 06:39:32;;;;;;;30.4;23.2;;;;;;;8.8;63.46289;939.5058;;;;
2019/04/04 06:42:00;;;;;;;30.3;23.8;;;;;;;8.97;62.70605;939.4609;;;;
2019/04/04 06:44:25;;;;;;;29.7;22;;;;;;;9;62.72363;939.3211;;;;
2019/04/04 06:46:51;;;;;;;29;22.8;;;;;;;8.97;62.625;939.383;;;;
2019/04/04 06:49:17;;;;;;;29;22.5;;;;;;;9.22;61.85449;939.4147;;;;
2019/04/04 06:51:42;;;;;;;27.3;22.1;;;;;;;9.22;61.98438;939.3575;;;;
2019/04/04 06:54:07;;;;;;;28.2;22.7;;;;;;;9.04;62.76465;939.4598;;;;
2019/04/04 06:56:33;;;;;;;31.5;21.9;;;;;;;9.03;62.78516;939.3575;;;;
2019/04/04 06:58:58;;;;;;;28.4;22.9;;;;;;;9.12;62.30859;939.387;;;;
2019/04/04 07:01:34;;;;;;;27.7;21.9;;;;;;;9.28;61.80566;939.4063;;;;
2019/04/04 07:04:00;;;;;;;28.4;22.1;;;;;;;9.16;62.42969;939.5051;;;;
2019/04/04 07:06:26;;;;;;;27.9;22.3;;;;;;;9.29;62.05273;939.3269;;;;
2019/04/04 07:09:05;;;;;;;29.2;22.4;;;;;;;9.41;61.50879;939.4261;;;;
2019/04/04 07:11:30;;;;;;;27.5;22;;;;;;;9.62;60.81348;939.3929;;;;
2019/04/04 07:13:55;;;;;;;27.1;21.5;;;;;;;9.7;60.37988;939.433;;;;
2019/04/04 07:16:26;;;;;;;26;21.4;;;;;;;9.79;60.06543;939.5294;;;;
2019/04/04 07:18:52;;;;;;;25.4;21.5;;;;;;;9.83;60.04883;939.4734;;;;
2019/04/04 07:21:18;;;;;;;25.9;21.8;;;;;;;9.73;60.54883;939.5084;;;;
2019/04/04 07:23:43;;;;;;;25.1;20.9;;;;;;;9.91;59.89453;939.5134;;;;
2019/04/04 07:26:08;;;;;;;25.9;21.3;;;;;;;9.62;60.83594;939.6085;;;;
2019/04/04 07:28:33;;;;;;;22.9;20.2;;;;;;;9.69;60.97461;939.5201;;;;
2019/04/04 07:31:00;;;;;;;24.7;20.6;;;;;;;9.7;60.82422;939.5109;;;;
2019/04/04 07:33:25;;;;;;;25.3;21.8;;;;;;;9.87;60.43945;939.5472;;;;
2019/04/04 07:35:50;;;;;;;27.7;21.3;;;;;;;9.87;60.58008;939.5602;;;;
2019/04/04 07:38:16;;;;;;;26.2;22.3;;;;;;;10.09;59.71973;939.5364;;;;
2019/04/04 07:40:46;;;;;;;23.2;20.4;;;;;;;9.74;60.67676;939.6017;;;;
2019/04/04 07:43:12;;;;;;;23.2;19.7;;;;;;;9.91;60.72559;939.4835;;;;
2019/04/04 07:45:39;;;;;;;22.2;19.2;;;;;;;10.26;59.50977;939.4966;;;;
2019/04/04 07:48:04;;;;;;;23.9;19.8;;;;;;;10.38;58.63672;939.5489;;;;
2019/04/04 07:50:29;;;;;;;24.6;20.7;;;;;;;10.49;58.36914;939.5267;;;;
2019/04/04 07:52:56;;;;;;;23;19.6;;;;;;;10.56;58.36719;939.4641;;;;
2019/04/04 07:55:21;;;;;;;24.2;20.2;;;;;;;10.61;57.95215;939.5884;;;;
2019/04/04 07:57:52;;;;;;;25;19.6;;;;;;;10.65;58.05078;939.5839;;;;
2019/04/04 08:00:17;;;;;;;24;20.5;;;;;;;10.7;58.2207;939.6433;;;;
2019/04/04 08:02:42;;;;;;;24.3;19.9;;;;;;;10.71;57.78906;939.6103;;;;
2019/04/04 08:05:08;;;;;;;21.5;19.2;;;;;;;10.83;57.29004;939.7853;;;;
2019/04/04 08:07:33;;;;;;;23.5;19.5;;;;;;;10.93;56.86816;939.8538;;;;
2019/04/04 08:09:58;;;;;;;25.9;20.8;;;;;;;11.04;56.6709;939.675;;;;
2019/04/04 08:12:24;;;;;;;22.7;20.1;;;;;;;11.04;56.70801;939.7478;;;;
2019/04/04 08:14:49;;;;;;;24.3;20.2;;;;;;;11.14;56.74219;939.7844;;;;
2019/04/04 08:17:14;;;;;;;23.3;19.2;;;;;;;11.04;56.87109;939.8442;;;;
2019/04/04 08:19:39;;;;;;;21.9;19.4;;;;;;;11.18;56.77344;939.9659;;;;
2019/04/04 08:22:04;;;;;;;23.1;20.1;;;;;;;11.29;55.73145;939.9547;;;;
2019/04/04 08:24:42;;;;;;;24.2;19.3;;;;;;;11.44;55.90234;939.915;;;;
2019/04/04 08:27:16;;;;;;;23.8;20.8;;;;;;;11.43;55.50195;939.9609;;;;
2019/04/04 08:29:41;;;;;;;26.2;20.4;;;;;;;11.36;55.46973;940.0706;;;;
2019/04/04 08:32:06;;;;;;;22.7;19.9;;;;;;;11.38;55.49609;940.1622;;;;
2019/04/04 08:34:31;;;;;;;22.9;20;;;;;;;11.5;55.14648;939.9409;;;;
2019/04/04 08:36:56;;;;;;;22.4;20;;;;;;;11.52;55.10156;940.0195;;;;
2019/04/04 08:39:21;;;;;;;23;20;;;;;;;11.41;55.19336;940.0569;;;;
2019/04/04 08:41:49;;;;;;;25.4;20.4;;;;;;;11.31;55.5332;940.16;;;;
2019/04/04 08:44:15;;;;;;;28.1;21.7;;;;;;;10.62;57.75391;940.1964;;;;
2019/04/04 08:46:40;;;;;;;29.3;21.2;;;;;;;10.79;57.0957;940.1408;;;;
2019/04/04 08:49:05;;;;;;;27;22.1;;;;;;;10.7;57.54199;940.2455;;;;
2019/04/04 08:51:30;;;;;;;27.3;21.5;;;;;;;10.8;57.23828;940.394;;;;
2019/04/04 08:53:55;;;;;;;27.1;21.3;;;;;;;10.54;57.89648;940.448;;;;
2019/04/04 08:56:20;;;;;;;26.1;21.9;;;;;;;10.7;57.72949;940.5095;;;;
2019/04/04 08:58:45;;;;;;;29.6;21.5;;;;;;;10.62;57.72949;940.5363;;;;
2019/04/04 09:01:10;;;;;;;29.1;22.3;;;;;;;10.7;57.2373;940.5486;;;;
2019/04/04 09:03:35;;;;;;;26.7;22.1;;;;;;;10.78;57.02441;940.5679;;;;
2019/04/04 09:06:01;;;;;;;28.5;22.8;;;;;;;10.53;57.89453;940.6763;;;;
2019/04/04 09:08:26;;;;;;;29.9;22.4;;;;;;;10.71;57.21484;940.6289;;;;
2019/04/04 09:10:57;;;;;;;30.3;22.2;;;;;;;10.59;58.00781;940.6674;;;;
2019/04/04 09:13:22;;;;;;;27.4;21.3;;;;;;;10.66;57.34961;940.679;;;;
2019/04/04 09:15:47;;;;;;;30.1;20.9;;;;;;;10.86;56.80078;940.7402;;;;
2019/04/04 09:18:12;;;;;;;27.1;21.8;;;;;;;10.77;57.06934;940.7608;;;;
2019/04/04 09:20:42;;;;;;;28.5;22.1;;;;;;;10.85;57.3623;940.7862;;;;
2019/04/04 09:23:07;;;;;;;28.7;21.9;;;;;;;10.94;56.84668;940.7595;;;;
2019/04/04 09:25:32;;;;;;;29;22.5;;;;;;;11.13;56.39063;940.7455;;;;
2019/04/04 09:28:10;;;;;;;26.1;22.9;;;;;;;11.05;56.4502;940.845;;;;
2019/04/04 09:30:35;;;;;;;29.8;23.3;;;;;;;11.08;55.97266;940.7084;;;;
2019/04/04 09:33:00;;;;;;;26.3;22.8;;;;;;;11.12;55.97754;940.8513;;;;
2019/04/04 09:35:25;;;;;;;43.6;24.7;;;;;;;11.13;56.51953;940.7011;;;;
2019/04/04 09:37:50;;;;;;;28;22.8;;;;;;;11.16;56.14746;940.7483;;;;
2019/04/04 09:40:17;;;;;;;28.1;22.3;;;;;;;11.36;55.38672;940.7218;;;;
2019/04/04 09:42:42;;;;;;;27.6;22.1;;;;;;;11.45;54.30469;940.769;;;;
2019/04/04 09:45:07;;;;;;;31;23;;;;;;;11.43;55.1377;940.8414;;;;
2019/04/04 09:47:32;;;;;;;26.9;23.2;;;;;;;11.35;55.11621;940.885;;;;
2019/04/04 09:49:57;;;;;;;28.2;23;;;;;;;11.31;55.20508;940.8708;;;;
2019/04/04 09:52:25;;;;;;;28.9;23.1;;;;;;;11.31;55.34473;940.9713;;;;
2019/04/04 09:54:50;;;;;;;29.1;24;;;;;;;11.05;55.7002;940.9346;;;;
2019/04/04 09:57:15;;;;;;;29.3;23.5;;;;;;;11.36;54.78711;940.9003;;;;
2019/04/04 09:59:40;;;;;;;28.1;22.5;;;;;;;11.23;54.8418;940.8234;;;;
2019/04/04 10:02:05;;;;;;;27.8;22.2;;;;;;;11.28;54.49512;940.7394;;;;
2019/04/04 10:04:32;;;;;;;29.4;22.4;;;;;;;11.04;55.58008;940.7684;;;;
2019/04/04 10:06:59;;;;;;;27.1;22;;;;;;;11.22;54.48828;940.7781;;;;
2019/04/04 10:09:24;;;;;;;27.8;22.3;;;;;;;11.31;54.125;940.7406;;;;
2019/04/04 10:11:49;;;;;;;27.3;21.6;;;;;;;11.36;53.96484;940.8184;;;;
2019/04/04 10:14:21;;;;;;;30.3;22.1;;;;;;;11.6;53.41992;940.8279;;;;
2019/04/04 10:16:47;;;;;;;26;21.2;;;;;;;11.89;53.0332;940.9139;;;;
2019/04/04 10:19:12;;;;;;;27.7;22.3;;;;;;;11.88;52.72559;941.0865;;;;
2019/04/04 10:21:38;;;;;;;29.2;21.7;;;;;;;11.71;53.0332;941.1351;;;;
2019/04/04 10:24:14;;;;;;;27.1;22.3;;;;;;;11.71;53.22266;941.0684;;;;
2019/04/04 10:26:40;;;;;;;26.7;22;;;;;;;11.78;52.67871;941.067;;;;
2019/04/04 10:29:05;;;;;;;27.4;22.5;;;;;;;11.79;52.9502;941.0783;;;;
2019/04/04 10:31:30;;;;;;;27.2;20.9;;;;;;;11.95;52.51074;941.2307;;;;
2019/04/04 10:33:55;;;;;;;23.6;19.9;;;;;;;11.69;52.53906;941.0769;;;;
2019/04/04 10:36:28;;;;;;;22.7;19.4;;;;;;;11.59;52.5625;941.1628;;;;
2019/04/04 10:38:53;;;;;;;25;20.3;;;;;;;11.66;52.82813;941.1578;;;;
2019/04/04 10:41:19;;;;;;;26.3;19.7;;;;;;;12;52.10449;941.1557;;;;
2019/04/04 10:43:44;;;;;;;24;19.5;;;;;;;12.59;50.02148;941.0226;;;;
2019/04/04 10:46:09;;;;;;;22.3;18.4;;;;;;;13.11;49.24316;941.011;;;;
2019/04/04 10:48:34;;;;;;;22.5;18;;;;;;;13.44;47.08691;940.9771;;;;
2019/04/04 10:50:59;;;;;;;21.1;17.7;;;;;;;13.69;47.16211;940.8993;;;;
2019/04/04 10:53:45;;;;;;;22.1;17.5;;;;;;;13.77;46.00098;941.0524;;;;
2019/04/04 10:56:10;;;;;;;21.2;18;;;;;;;13.47;45.6748;940.9011;;;;
2019/04/04 10:58:38;;;;;;;21.8;18.4;;;;;;;13.42;46.42383;940.855;;;;
2019/04/04 11:01:03;;;;;;;25.8;18.6;;;;;;;13.37;47.10352;940.7736;;;;
2019/04/04 11:21:29;;;;;;;22.8;19.1;;;;;;;15.34;44.17578;940.3879;;;;
2019/04/04 11:23:54;;;;;;;24.8;18.6;;;;;;;15.42;43.02344;940.3951;;;;
2019/04/04 11:26:19;;;;;;;23.2;18.9;;;;;;;15.58;43.37012;940.4205;;;;
2019/04/04 11:28:45;;;;;;;22.1;18.4;;;;;;;15.61;42.86328;940.4228;;;;
2019/04/04 11:31:10;;;;;;;21.4;18.3;;;;;;;15.77;42.13184;940.5342;;;;
2019/04/04 11:33:35;;;;;;;20.5;17.7;;;;;;;15.77;41.61035;940.4986;;;;
2019/04/04 11:36:00;;;;;;;21.7;17.7;;;;;;;15.87;41.88086;940.562;;;;
2019/04/04 11:38:25;;;;;;;20.6;17.2;;;;;;;15.92;42.36035;940.5516;;;;
2019/04/04 11:40:51;;;;;;;20;17.4;;;;;;;15.89;41.77539;940.5717;;;;
2019/04/04 11:43:16;;;;;;;22.9;18.6;;;;;;;14.79;43.24512;940.522;;;;
2019/04/04 11:45:41;;;;;;;19.6;17.5;;;;;;;14.73;44.04395;940.4535;;;;
2019/04/04 11:48:06;;;;;;;23.4;17.9;;;;;;;14.41;44.17676;940.4152;;;;
2019/04/04 11:50:31;;;;;;;20.1;17.1;;;;;;;14.84;43.79492;940.3619;;;;
2019/04/04 11:52:56;;;;;;;21.2;17.9;;;;;;;15.12;43.13477;940.5039;;;;
2019/04/04 11:55:21;;;;;;;20.5;16.6;;;;;;;15.29;42.8916;940.6007;;;;
2019/04/04 11:57:46;;;;;;;18.9;16.5;;;;;;;15.6;42.67188;940.6998;;;;
2019/04/04 12:00:15;;;;;;;24.4;18.2;;;;;;;15.22;42.88477;940.6724;;;;
2019/04/04 12:02:37;;;;;;;20.4;17.4;;;;;;;15.4;42.54688;940.6888;;;;
2019/04/04 12:05:02;;;;;;;20.1;17.3;;;;;;;15.41;43.02148;940.7431;;;;
2019/04/04 12:07:27;;;;;;;18.5;16.6;;;;;;;15.56;41.98145;940.9277;;;;
2019/04/04 12:09:52;;;;;;;18.5;16.5;;;;;;;15.35;42.05566;940.8095;;;;
2019/04/04 12:12:17;;;;;;;21.1;17.5;;;;;;;15.16;42.75977;940.866;;;;
2019/04/04 12:14:42;;;;;;;21.2;17.3;;;;;;;15.34;43.25195;940.856;;;;
2019/04/04 12:17:07;;;;;;;17.9;16;;;;;;;15.75;42.9248;940.8185;;;;
2019/04/04 12:19:32;;;;;;;22.8;16.8;;;;;;;15.75;42.02246;940.8806;;;;
2019/04/04 12:21:58;;;;;;;18.9;16.9;;;;;;;15.32;42.84668;940.9083;;;;
2019/04/04 12:24:23;;;;;;;18.7;16.5;;;;;;;15.53;42.52441;940.9817;;;;
2019/04/04 12:26:48;;;;;;;20;17.2;;;;;;;15.37;42.48438;940.9522;;;;
2019/04/04 12:29:13;;;;;;;20.4;16.3;;;;;;;15.64;42.04883;940.8954;;;;
2019/04/04 12:31:38;;;;;;;17.5;15.5;;;;;;;15.94;42.16016;940.9885;;;;
2019/04/04 12:34:03;;;;;;;17.3;15.5;;;;;;;15.91;41.99121;941.1136;;;;
2019/04/04 12:36:28;;;;;;;16.8;15.1;;;;;;;16.06;41.93457;941.0524;;;;
2019/04/04 12:38:53;;;;;;;19.2;16.1;;;;;;;15.88;42.03516;941.0775;;;;
2019/04/04 12:41:18;;;;;;;18.2;16.2;;;;;;;15.47;42.3877;941.0272;;;;
2019/04/04 12:43:44;;;;;;;20.4;15.6;;;;;;;15.73;42.09277;941.2212;;;;
2019/04/04 12:46:09;;;;;;;24.3;15.2;;;;;;;15.47;42.56543;941.2145;;;;
2019/04/04 12:48:34;;;;;;;19.1;16.4;;;;;;;14.69;43.66016;941.1955;;;;
2019/04/04 12:50:59;;;;;;;18.4;15.9;;;;;;;14.33;44.85352;941.3628;;;;
2019/04/04 12:53:24;;;;;;;17.4;14.8;;;;;;;14.42;45.26563;941.5561;;;;
2019/04/04 12:55:49;;;;;;;16.6;14.9;;;;;;;14.22;46.22559;941.5829;;;;
2019/04/04 12:58:14;;;;;;;18.2;15;;;;;;;14.3;46.35254;941.6145;;;;
2019/04/04 13:00:40;;;;;;;17.8;14.9;;;;;;;14.21;46.80371;941.6555;;;;
2019/04/04 13:03:05;;;;;;;22.7;16.1;;;;;;;13.21;49.80957;941.7026;;;;
2019/04/04 13:05:30;;;;;;;19.7;14.9;;;;;;;13.73;48.53613;941.6699;;;;
2019/04/04 13:07:55;;;;;;;21.5;15.2;;;;;;;13.54;48.98633;941.747;;;;
2019/04/04 13:10:20;;;;;;;17.4;14.2;;;;;;;13.37;49.25098;941.832;;;;
2019/04/04 13:12:45;;;;;;;16.9;14;;;;;;;13.38;49.73438;941.9534;;;;
2019/04/04 13:15:10;;;;;;;22.8;14.8;;;;;;;13.33;49.23438;942.0156;;;;
2019/04/04 13:17:35;;;;;;;18.9;13.8;;;;;;;13.15;49.23633;941.9639;;;;
2019/04/04 13:20:00;;;;;;;15.2;13.3;;;;;;;13.4;49.24121;941.9186;;;;
2019/04/04 13:22:25;;;;;;;16.3;13.1;;;;;;;13.33;49.20996;942.0643;;;;
2019/04/04 13:24:51;;;;;;;20;12.9;;;;;;;12.95;49.74414;942.0513;;;;
2019/04/04 13:27:16;;;;;;;16.4;12.5;;;;;;;12.77;50.05371;942.2247;;;;
2019/04/04 13:29:41;;;;;;;15.2;12.5;;;;;;;12.49;50.7041;942.1755;;;;
2019/04/04 13:32:07;;;;;;;15.7;12.4;;;;;;;12.75;50.26367;942.4332;;;;
2019/04/04 13:34:32;;;;;;;15.4;11.9;;;;;;;12.62;50.33105;942.5745;;;;
2019/04/04 13:36:57;;;;;;;14;11.8;;;;;;;12.44;51.11133;942.6379;;;;
2019/04/04 13:39:22;;;;;;;13.6;10.8;;;;;;;12.01;51.91895;942.5661;;;;
2019/04/04 13:41:47;;;;;;;12.5;10.7;;;;;;;12.36;51.43066;942.5606;;;;
2019/04/04 13:44:12;;;;;;;11.8;10.2;;;;;;;12.4;51.1416;942.6163;;;;
2019/04/04 13:46:38;;;;;;;12.5;9.8;;;;;;;12.36;50.81836;942.5698;;;;
2019/04/04 13:49:03;;;;;;;11.4;9.7;;;;;;;12.49;50.72852;942.649;;;;
2019/04/04 13:51:28;;;;;;;12.8;9.6;;;;;;;12.63;50.37891;942.616;;;;
2019/04/04 13:53:53;;;;;;;13.6;9.7;;;;;;;12.54;50.81641;942.5125;;;;
2019/04/04 13:56:18;;;;;;;11.7;9.5;;;;;;;12.15;51.6875;942.6321;;;;
2019/04/04 13:58:43;;;;;;;11.4;9.7;;;;;;;12.16;51.39551;942.6939;;;;
2019/04/04 14:01:09;;;;;;;10.3;9.2;;;;;;;12.24;51.04004;942.6517;;;;
2019/04/04 14:03:34;;;;;;;10.6;8.5;;;;;;;12.04;51.2168;942.7813;;;;
2019/04/04 14:05:59;;;;;;;9.9;8.5;;;;;;;12.05;51.18359;942.8338;;;;
2019/04/04 14:08:24;;;;;;;11.8;8.6;;;;;;;12.35;50.44043;943.1288;;;;
2019/04/04 14:10:49;;;;;;;10.1;8.6;;;;;;;12.14;51.41699;943.2634;;;;
2019/04/04 14:13:14;;;;;;;10.3;8;;;;;;;11.97;52.25586;943.1942;;;;
2019/04/04 14:15:39;;;;;;;10.4;8.7;;;;;;;12.31;51.1543;943.1016;;;;
2019/04/04 14:18:21;;;;;;;9.5;8.5;;;;;;;11.94;51.75684;943.193;;;;
2019/04/04 14:20:29;;;;;;;9.2;8.2;;;;;;;11.77;52.34863;943.1539;;;;
2019/04/04 14:22:54;;;;;;;11.6;8.2;;;;;;;11.83;52.32031;943.1817;;;;
2019/04/04 14:25:19;;;;;;;10.7;8.1;;;;;;;11.99;51.64648;943.1727;;;;